sensor_id;sensor_type;location;lat;lon;timestamp;P1;durP1;ratioP1;P2;durP2;ratioP2
20743;SDS011;56303;52.160;-0.428;2023-02-23T00:01:50;10.87;;;7.37;;
20743;SDS011;56303;52.160;-0.428;2023-02-23T00:04:17;9.30;;;6.73;;
20743;SDS011;56303;52.160;-0.428;2023-02-23T00:06:44;7.80;;;6.40;;
20743;SDS011;56303;52.160;-0.428;2023-02-23T00:09:11;10.27;;;7.10;;
20743;SDS011;56303;52.160;-0.428;2023-02-23T00:11:52;10.37;;;7.93;;
20743;SDS011;56303;52.160;-0.428;2023-02-23T00:14:21;10.87;;;6.93;;
20743;SDS011;56303;52.160;-0.428;2023-02-23T00:16:53;10.03;;;7.00;;
20743;SDS011;56303;52.160;-0.428;2023-02-23T00:19:20;11.00;;;6.33;;
20743;SDS011;56303;52.160;-0.428;2023-02-23T00:21:50;9.60;;;6.53;;
20743;SDS011;56303;52.160;-0.428;2023-02-23T00:24:17;12.37;;;7.13;;
20743;SDS011;56303;52.160;-0.428;2023-02-23T00:26:45;10.33;;;6.20;;
20743;SDS011;56303;52.160;-0.428;2023-02-23T00:29:14;9.97;;;6.03;;
20743;SDS011;56303;52.160;-0.428;2023-02-23T00:31:44;10.97;;;6.57;;
20743;SDS011;56303;52.160;-0.428;2023-02-23T00:34:12;12.23;;;6.67;;
20743;SDS011;56303;52.160;-0.428;2023-02-23T00:36:42;10.90;;;6.60;;
20743;SDS011;56303;52.160;-0.428;2023-02-23T00:39:10;9.53;;;6.57;;
20743;SDS011;56303;52.160;-0.428;2023-02-23T00:41:47;15.80;;;7.20;;
20743;SDS011;56303;52.160;-0.428;2023-02-23T00:44:15;9.10;;;6.60;;
20743;SDS011;56303;52.160;-0.428;2023-02-23T00:46:42;10.53;;;7.23;;
20743;SDS011;56303;52.160;-0.428;2023-02-23T00:49:11;9.93;;;6.87;;
20743;SDS011;56303;52.160;-0.428;2023-02-23T00:51:38;11.70;;;7.03;;
20743;SDS011;56303;52.160;-0.428;2023-02-23T00:54:06;8.90;;;6.43;;
20743;SDS011;56303;52.160;-0.428;2023-02-23T00:56:34;8.67;;;6.50;;
20743;SDS011;56303;52.160;-0.428;2023-02-23T00:59:00;7.77;;;6.00;;
20743;SDS011;56303;52.160;-0.428;2023-02-23T01:01:27;10.57;;;6.77;;
20743;SDS011;56303;52.160;-0.428;2023-02-23T01:03:54;9.27;;;7.90;;
20743;SDS011;56303;52.160;-0.428;2023-02-23T01:06:21;9.90;;;7.93;;
20743;SDS011;56303;52.160;-0.428;2023-02-23T01:08:50;10.40;;;7.67;;
20743;SDS011;56303;52.160;-0.428;2023-02-23T01:11:26;10.40;;;7.40;;
20743;SDS011;56303;52.160;-0.428;2023-02-23T01:13:54;9.17;;;7.67;;
20743;SDS011;56303;52.160;-0.428;2023-02-23T01:16:24;10.10;;;7.97;;
20743;SDS011;56303;52.160;-0.428;2023-02-23T01:18:53;11.93;;;7.57;;
20743;SDS011;56303;52.160;-0.428;2023-02-23T01:21:24;13.57;;;8.80;;
20743;SDS011;56303;52.160;-0.428;2023-02-23T01:23:59;14.47;;;8.43;;
20743;SDS011;56303;52.160;-0.428;2023-02-23T01:26:29;11.20;;;8.97;;
20743;SDS011;56303;52.160;-0.428;2023-02-23T01:29:00;14.17;;;8.87;;
20743;SDS011;56303;52.160;-0.428;2023-02-23T01:31:30;11.67;;;8.40;;
20743;SDS011;56303;52.160;-0.428;2023-02-23T01:33:58;9.93;;;7.60;;
20743;SDS011;56303;52.160;-0.428;2023-02-23T01:36:31;11.23;;;8.33;;
20743;SDS011;56303;52.160;-0.428;2023-02-23T01:39:00;14.23;;;8.73;;
20743;SDS011;56303;52.160;-0.428;2023-02-23T01:41:27;11.03;;;7.43;;
20743;SDS011;56303;52.160;-0.428;2023-02-23T01:46:32;10.67;;;7.13;;
20743;SDS011;56303;52.160;-0.428;2023-02-23T01:49:01;8.87;;;7.57;;
20743;SDS011;56303;52.160;-0.428;2023-02-23T01:51:33;12.60;;;6.83;;
20743;SDS011;56303;52.160;-0.428;2023-02-23T01:54:06;11.70;;;6.93;;
20743;SDS011;56303;52.160;-0.428;2023-02-23T01:56:41;11.43;;;6.57;;
20743;SDS011;56303;52.160;-0.428;2023-02-23T01:59:12;13.37;;;6.73;;
20743;SDS011;56303;52.160;-0.428;2023-02-23T02:01:41;11.10;;;7.27;;
20743;SDS011;56303;52.160;-0.428;2023-02-23T02:04:09;9.43;;;6.20;;
20743;SDS011;56303;52.160;-0.428;2023-02-23T02:06:43;10.37;;;6.43;;
20743;SDS011;56303;52.160;-0.428;2023-02-23T02:09:14;8.53;;;6.17;;
20743;SDS011;56303;52.160;-0.428;2023-02-23T02:11:42;7.70;;;6.33;;
20743;SDS011;56303;52.160;-0.428;2023-02-23T02:14:16;12.23;;;6.93;;
20743;SDS011;56303;52.160;-0.428;2023-02-23T02:22:35;11.70;;;7.77;;
20743;SDS011;56303;52.160;-0.428;2023-02-23T02:39:11;8.90;;;5.47;;
20743;SDS011;56303;52.160;-0.428;2023-02-23T02:45:26;9.27;;;5.73;;
20743;SDS011;56303;52.160;-0.428;2023-02-23T02:53:57;10.33;;;5.40;;
20743;SDS011;56303;52.160;-0.428;2023-02-23T02:56:43;7.73;;;5.27;;
20743;SDS011;56303;52.160;-0.428;2023-02-23T02:59:13;8.27;;;5.17;;
20743;SDS011;56303;52.160;-0.428;2023-02-23T03:02:01;5.63;;;4.57;;
20743;SDS011;56303;52.160;-0.428;2023-02-23T03:04:48;10.07;;;4.70;;
20743;SDS011;56303;52.160;-0.428;2023-02-23T03:07:39;7.37;;;4.20;;
20743;SDS011;56303;52.160;-0.428;2023-02-23T03:19:56;8.40;;;4.63;;
20743;SDS011;56303;52.160;-0.428;2023-02-23T03:22:56;12.27;;;4.93;;
20743;SDS011;56303;52.160;-0.428;2023-02-23T03:26:01;6.67;;;5.40;;
20743;SDS011;56303;52.160;-0.428;2023-02-23T03:29:16;10.00;;;4.63;;
20743;SDS011;56303;52.160;-0.428;2023-02-23T03:32:28;8.90;;;5.30;;
20743;SDS011;56303;52.160;-0.428;2023-02-23T03:35:26;7.73;;;5.07;;
20743;SDS011;56303;52.160;-0.428;2023-02-23T03:38:19;9.43;;;5.53;;
20743;SDS011;56303;52.160;-0.428;2023-02-23T03:41:15;12.20;;;5.53;;
20743;SDS011;56303;52.160;-0.428;2023-02-23T03:44:04;9.13;;;4.93;;
20743;SDS011;56303;52.160;-0.428;2023-02-23T03:46:55;7.10;;;4.90;;
20743;SDS011;56303;52.160;-0.428;2023-02-23T03:49:43;6.93;;;5.20;;
20743;SDS011;56303;52.160;-0.428;2023-02-23T03:52:32;8.43;;;4.80;;
20743;SDS011;56303;52.160;-0.428;2023-02-23T03:55:31;9.60;;;4.83;;
20743;SDS011;56303;52.160;-0.428;2023-02-23T03:58:26;6.63;;;4.47;;
20743;SDS011;56303;52.160;-0.428;2023-02-23T04:01:16;7.33;;;4.80;;
20743;SDS011;56303;52.160;-0.428;2023-02-23T04:04:03;6.73;;;4.30;;
20743;SDS011;56303;52.160;-0.428;2023-02-23T04:06:52;8.37;;;5.30;;
20743;SDS011;56303;52.160;-0.428;2023-02-23T04:09:41;8.10;;;4.13;;
20743;SDS011;56303;52.160;-0.428;2023-02-23T04:12:37;8.97;;;4.73;;
20743;SDS011;56303;52.160;-0.428;2023-02-23T04:18:32;6.63;;;3.63;;
20743;SDS011;56303;52.160;-0.428;2023-02-23T04:21:00;8.77;;;4.00;;
20743;SDS011;56303;52.160;-0.428;2023-02-23T04:23:27;9.10;;;4.27;;
20743;SDS011;56303;52.160;-0.428;2023-02-23T04:25:54;9.37;;;3.97;;
20743;SDS011;56303;52.160;-0.428;2023-02-23T04:28:22;7.93;;;3.67;;
20743;SDS011;56303;52.160;-0.428;2023-02-23T04:30:50;9.63;;;4.57;;
20743;SDS011;56303;52.160;-0.428;2023-02-23T04:33:19;8.07;;;3.70;;
20743;SDS011;56303;52.160;-0.428;2023-02-23T04:35:47;7.97;;;3.40;;
20743;SDS011;56303;52.160;-0.428;2023-02-23T04:38:14;9.10;;;3.60;;
20743;SDS011;56303;52.160;-0.428;2023-02-23T04:40:41;7.83;;;2.70;;
20743;SDS011;56303;52.160;-0.428;2023-02-23T04:43:09;13.60;;;3.60;;
20743;SDS011;56303;52.160;-0.428;2023-02-23T04:45:37;8.30;;;2.93;;
20743;SDS011;56303;52.160;-0.428;2023-02-23T04:48:08;8.53;;;3.20;;
20743;SDS011;56303;52.160;-0.428;2023-02-23T04:50:35;9.60;;;2.93;;
20743;SDS011;56303;52.160;-0.428;2023-02-23T04:55:52;12.87;;;3.80;;
20743;SDS011;56303;52.160;-0.428;2023-02-23T05:00:53;8.50;;;3.17;;
20743;SDS011;56303;52.160;-0.428;2023-02-23T05:03:20;11.73;;;4.00;;
20743;SDS011;56303;52.160;-0.428;2023-02-23T05:05:47;9.27;;;3.83;;
20743;SDS011;56303;52.160;-0.428;2023-02-23T05:08:14;10.17;;;3.17;;
20743;SDS011;56303;52.160;-0.428;2023-02-23T05:10:42;9.23;;;3.57;;
20743;SDS011;56303;52.160;-0.428;2023-02-23T05:13:10;11.50;;;4.37;;
20743;SDS011;56303;52.160;-0.428;2023-02-23T05:15:37;12.83;;;3.63;;
20743;SDS011;56303;52.160;-0.428;2023-02-23T05:18:05;10.37;;;3.97;;
20743;SDS011;56303;52.160;-0.428;2023-02-23T05:20:33;8.87;;;3.73;;
20743;SDS011;56303;52.160;-0.428;2023-02-23T05:23:00;8.97;;;3.00;;
20743;SDS011;56303;52.160;-0.428;2023-02-23T05:25:26;13.37;;;3.77;;
20743;SDS011;56303;52.160;-0.428;2023-02-23T05:27:54;12.20;;;3.20;;
20743;SDS011;56303;52.160;-0.428;2023-02-23T05:30:22;11.43;;;3.10;;
20743;SDS011;56303;52.160;-0.428;2023-02-23T05:32:49;9.90;;;3.47;;
20743;SDS011;56303;52.160;-0.428;2023-02-23T05:35:16;10.13;;;3.73;;
20743;SDS011;56303;52.160;-0.428;2023-02-23T05:37:43;8.30;;;3.50;;
20743;SDS011;56303;52.160;-0.428;2023-02-23T05:40:10;13.43;;;3.90;;
20743;SDS011;56303;52.160;-0.428;2023-02-23T05:42:37;12.30;;;4.23;;
20743;SDS011;56303;52.160;-0.428;2023-02-23T05:45:05;17.37;;;3.93;;
20743;SDS011;56303;52.160;-0.428;2023-02-23T05:47:32;15.47;;;4.03;;
20743;SDS011;56303;52.160;-0.428;2023-02-23T05:50:04;9.40;;;4.50;;
20743;SDS011;56303;52.160;-0.428;2023-02-23T05:52:35;10.57;;;5.00;;
20743;SDS011;56303;52.160;-0.428;2023-02-23T05:55:04;8.53;;;4.53;;
20743;SDS011;56303;52.160;-0.428;2023-02-23T05:57:31;8.40;;;4.47;;
20743;SDS011;56303;52.160;-0.428;2023-02-23T05:59:58;10.43;;;4.17;;
20743;SDS011;56303;52.160;-0.428;2023-02-23T06:02:25;13.83;;;6.30;;
20743;SDS011;56303;52.160;-0.428;2023-02-23T06:04:53;12.27;;;5.80;;
20743;SDS011;56303;52.160;-0.428;2023-02-23T06:07:21;12.63;;;4.80;;
20743;SDS011;56303;52.160;-0.428;2023-02-23T06:09:48;9.67;;;4.23;;
20743;SDS011;56303;52.160;-0.428;2023-02-23T06:12:15;15.07;;;5.57;;
20743;SDS011;56303;52.160;-0.428;2023-02-23T06:14:42;13.53;;;5.20;;
20743;SDS011;56303;52.160;-0.428;2023-02-23T06:17:09;12.90;;;4.30;;
20743;SDS011;56303;52.160;-0.428;2023-02-23T06:19:36;12.77;;;4.67;;
20743;SDS011;56303;52.160;-0.428;2023-02-23T06:22:03;12.90;;;5.30;;
20743;SDS011;56303;52.160;-0.428;2023-02-23T06:24:36;13.07;;;3.30;;
20743;SDS011;56303;52.160;-0.428;2023-02-23T06:27:03;8.67;;;3.27;;
20743;SDS011;56303;52.160;-0.428;2023-02-23T06:29:30;10.23;;;3.40;;
20743;SDS011;56303;52.160;-0.428;2023-02-23T06:31:57;10.60;;;3.43;;
20743;SDS011;56303;52.160;-0.428;2023-02-23T06:34:26;17.60;;;5.03;;
20743;SDS011;56303;52.160;-0.428;2023-02-23T06:36:53;14.80;;;2.87;;
20743;SDS011;56303;52.160;-0.428;2023-02-23T06:39:20;11.60;;;3.40;;
20743;SDS011;56303;52.160;-0.428;2023-02-23T06:41:47;11.00;;;3.13;;
20743;SDS011;56303;52.160;-0.428;2023-02-23T06:44:13;13.27;;;3.57;;
20743;SDS011;56303;52.160;-0.428;2023-02-23T06:46:40;13.07;;;3.50;;
20743;SDS011;56303;52.160;-0.428;2023-02-23T06:49:09;14.13;;;3.53;;
20743;SDS011;56303;52.160;-0.428;2023-02-23T06:51:37;11.53;;;3.63;;
20743;SDS011;56303;52.160;-0.428;2023-02-23T06:54:03;9.87;;;2.77;;
20743;SDS011;56303;52.160;-0.428;2023-02-23T06:56:34;13.03;;;4.20;;
20743;SDS011;56303;52.160;-0.428;2023-02-23T06:59:02;10.67;;;3.57;;
20743;SDS011;56303;52.160;-0.428;2023-02-23T07:01:29;9.97;;;2.80;;
20743;SDS011;56303;52.160;-0.428;2023-02-23T07:03:56;13.20;;;3.63;;
20743;SDS011;56303;52.160;-0.428;2023-02-23T07:06:23;10.73;;;3.77;;
20743;SDS011;56303;52.160;-0.428;2023-02-23T07:08:50;14.70;;;3.57;;
20743;SDS011;56303;52.160;-0.428;2023-02-23T07:11:18;13.87;;;3.73;;
20743;SDS011;56303;52.160;-0.428;2023-02-23T07:13:46;16.03;;;4.30;;
20743;SDS011;56303;52.160;-0.428;2023-02-23T07:16:16;14.00;;;3.20;;
20743;SDS011;56303;52.160;-0.428;2023-02-23T07:18:42;11.97;;;3.37;;
20743;SDS011;56303;52.160;-0.428;2023-02-23T07:21:09;12.23;;;4.17;;
20743;SDS011;56303;52.160;-0.428;2023-02-23T07:23:36;10.73;;;3.30;;
20743;SDS011;56303;52.160;-0.428;2023-02-23T07:26:03;10.93;;;3.40;;
20743;SDS011;56303;52.160;-0.428;2023-02-23T07:28:33;12.70;;;3.63;;
20743;SDS011;56303;52.160;-0.428;2023-02-23T07:31:00;17.40;;;3.47;;
20743;SDS011;56303;52.160;-0.428;2023-02-23T07:33:27;15.67;;;3.77;;
20743;SDS011;56303;52.160;-0.428;2023-02-23T07:35:53;10.67;;;2.73;;
20743;SDS011;56303;52.160;-0.428;2023-02-23T07:38:20;12.60;;;3.83;;
20743;SDS011;56303;52.160;-0.428;2023-02-23T07:40:48;15.50;;;4.03;;
20743;SDS011;56303;52.160;-0.428;2023-02-23T07:43:16;12.73;;;3.80;;
20743;SDS011;56303;52.160;-0.428;2023-02-23T07:45:48;20.40;;;4.57;;
20743;SDS011;56303;52.160;-0.428;2023-02-23T07:48:17;15.10;;;3.00;;
20743;SDS011;56303;52.160;-0.428;2023-02-23T07:50:44;13.07;;;3.80;;
20743;SDS011;56303;52.160;-0.428;2023-02-23T07:53:11;16.17;;;3.73;;
20743;SDS011;56303;52.160;-0.428;2023-02-23T07:55:38;12.33;;;3.67;;
20743;SDS011;56303;52.160;-0.428;2023-02-23T07:58:05;10.80;;;3.83;;
20743;SDS011;56303;52.160;-0.428;2023-02-23T08:00:33;13.40;;;3.90;;
20743;SDS011;56303;52.160;-0.428;2023-02-23T08:03:02;19.03;;;5.37;;
20743;SDS011;56303;52.160;-0.428;2023-02-23T08:05:28;15.93;;;6.90;;
20743;SDS011;56303;52.160;-0.428;2023-02-23T08:07:56;15.73;;;3.80;;
20743;SDS011;56303;52.160;-0.428;2023-02-23T08:10:23;11.40;;;3.83;;
20743;SDS011;56303;52.160;-0.428;2023-02-23T08:12:51;20.17;;;5.80;;
20743;SDS011;56303;52.160;-0.428;2023-02-23T08:15:18;22.00;;;5.17;;
20743;SDS011;56303;52.160;-0.428;2023-02-23T08:17:46;18.43;;;4.43;;
20743;SDS011;56303;52.160;-0.428;2023-02-23T08:20:13;15.87;;;3.60;;
20743;SDS011;56303;52.160;-0.428;2023-02-23T08:22:39;16.90;;;4.47;;
20743;SDS011;56303;52.160;-0.428;2023-02-23T08:25:15;15.33;;;4.83;;
20743;SDS011;56303;52.160;-0.428;2023-02-23T08:27:42;11.90;;;3.70;;
20743;SDS011;56303;52.160;-0.428;2023-02-23T08:30:09;23.73;;;5.70;;
20743;SDS011;56303;52.160;-0.428;2023-02-23T08:32:39;15.10;;;3.70;;
20743;SDS011;56303;52.160;-0.428;2023-02-23T08:35:06;14.43;;;4.20;;
20743;SDS011;56303;52.160;-0.428;2023-02-23T08:37:35;14.63;;;4.73;;
20743;SDS011;56303;52.160;-0.428;2023-02-23T08:40:03;13.20;;;3.67;;
20743;SDS011;56303;52.160;-0.428;2023-02-23T08:42:30;14.73;;;3.90;;
20743;SDS011;56303;52.160;-0.428;2023-02-23T08:44:57;18.37;;;4.57;;
20743;SDS011;56303;52.160;-0.428;2023-02-23T08:47:26;18.97;;;4.73;;
20743;SDS011;56303;52.160;-0.428;2023-02-23T08:49:53;14.77;;;4.67;;
20743;SDS011;56303;52.160;-0.428;2023-02-23T08:52:20;12.60;;;4.30;;
20743;SDS011;56303;52.160;-0.428;2023-02-23T08:54:47;20.80;;;5.00;;
20743;SDS011;56303;52.160;-0.428;2023-02-23T08:57:14;15.20;;;4.50;;
20743;SDS011;56303;52.160;-0.428;2023-02-23T08:59:41;17.73;;;5.23;;
20743;SDS011;56303;52.160;-0.428;2023-02-23T09:02:10;16.33;;;4.97;;
20743;SDS011;56303;52.160;-0.428;2023-02-23T09:04:40;20.23;;;5.80;;
20743;SDS011;56303;52.160;-0.428;2023-02-23T09:07:17;15.87;;;5.30;;
20743;SDS011;56303;52.160;-0.428;2023-02-23T09:09:44;18.97;;;6.23;;
20743;SDS011;56303;52.160;-0.428;2023-02-23T09:12:11;18.43;;;5.27;;
20743;SDS011;56303;52.160;-0.428;2023-02-23T09:14:38;14.10;;;4.90;;
20743;SDS011;56303;52.160;-0.428;2023-02-23T09:17:05;14.37;;;5.67;;
20743;SDS011;56303;52.160;-0.428;2023-02-23T09:19:32;16.23;;;6.37;;
20743;SDS011;56303;52.160;-0.428;2023-02-23T09:21:59;20.87;;;5.60;;
20743;SDS011;56303;52.160;-0.428;2023-02-23T09:24:26;20.50;;;5.57;;
20743;SDS011;56303;52.160;-0.428;2023-02-23T09:26:52;15.30;;;5.90;;
20743;SDS011;56303;52.160;-0.428;2023-02-23T09:29:19;19.57;;;5.50;;
20743;SDS011;56303;52.160;-0.428;2023-02-23T09:31:46;15.80;;;4.67;;
20743;SDS011;56303;52.160;-0.428;2023-02-23T09:34:13;17.10;;;5.20;;
20743;SDS011;56303;52.160;-0.428;2023-02-23T09:36:40;17.97;;;3.87;;
20743;SDS011;56303;52.160;-0.428;2023-02-23T09:39:07;13.33;;;4.67;;
20743;SDS011;56303;52.160;-0.428;2023-02-23T09:42:17;16.13;;;4.40;;
20743;SDS011;56303;52.160;-0.428;2023-02-23T09:44:36;17.17;;;5.20;;
20743;SDS011;56303;52.160;-0.428;2023-02-23T09:47:32;16.77;;;4.83;;
20743;SDS011;56303;52.160;-0.428;2023-02-23T09:50:19;15.60;;;4.63;;
20743;SDS011;56303;52.160;-0.428;2023-02-23T09:52:51;13.80;;;4.17;;
20743;SDS011;56303;52.160;-0.428;2023-02-23T09:55:26;14.73;;;4.43;;
20743;SDS011;56303;52.160;-0.428;2023-02-23T09:57:54;13.73;;;3.27;;
20743;SDS011;56303;52.160;-0.428;2023-02-23T10:00:24;19.77;;;4.30;;
20743;SDS011;56303;52.160;-0.428;2023-02-23T10:05:30;18.07;;;4.43;;
20743;SDS011;56303;52.160;-0.428;2023-02-23T10:08:05;14.90;;;4.57;;
20743;SDS011;56303;52.160;-0.428;2023-02-23T10:10:59;20.93;;;4.43;;
20743;SDS011;56303;52.160;-0.428;2023-02-23T10:13:33;16.07;;;4.23;;
20743;SDS011;56303;52.160;-0.428;2023-02-23T10:16:19;24.20;;;5.20;;
20743;SDS011;56303;52.160;-0.428;2023-02-23T10:21:40;12.63;;;4.40;;
20743;SDS011;56303;52.160;-0.428;2023-02-23T10:24:16;14.17;;;4.83;;
20743;SDS011;56303;52.160;-0.428;2023-02-23T10:26:50;12.90;;;3.60;;
20743;SDS011;56303;52.160;-0.428;2023-02-23T10:29:30;14.83;;;5.13;;
20743;SDS011;56303;52.160;-0.428;2023-02-23T10:32:03;13.93;;;4.90;;
20743;SDS011;56303;52.160;-0.428;2023-02-23T10:34:37;13.53;;;5.47;;
20743;SDS011;56303;52.160;-0.428;2023-02-23T10:37:08;15.23;;;5.10;;
20743;SDS011;56303;52.160;-0.428;2023-02-23T10:39:39;10.13;;;4.40;;
20743;SDS011;56303;52.160;-0.428;2023-02-23T10:42:11;21.17;;;6.03;;
20743;SDS011;56303;52.160;-0.428;2023-02-23T10:44:43;14.00;;;5.00;;
20743;SDS011;56303;52.160;-0.428;2023-02-23T10:47:15;17.23;;;5.13;;
20743;SDS011;56303;52.160;-0.428;2023-02-23T10:49:47;17.00;;;4.60;;
20743;SDS011;56303;52.160;-0.428;2023-02-23T10:52:28;15.53;;;4.67;;
20743;SDS011;56303;52.160;-0.428;2023-02-23T10:54:58;12.47;;;4.57;;
20743;SDS011;56303;52.160;-0.428;2023-02-23T10:57:26;14.73;;;3.60;;
20743;SDS011;56303;52.160;-0.428;2023-02-23T11:00:07;16.80;;;5.27;;
20743;SDS011;56303;52.160;-0.428;2023-02-23T11:02:59;13.70;;;5.10;;
20743;SDS011;56303;52.160;-0.428;2023-02-23T11:05:32;19.47;;;4.80;;
20743;SDS011;56303;52.160;-0.428;2023-02-23T11:10:55;16.77;;;5.27;;
20743;SDS011;56303;52.160;-0.428;2023-02-23T11:13:32;13.07;;;4.27;;
20743;SDS011;56303;52.160;-0.428;2023-02-23T11:16:07;15.53;;;5.40;;
20743;SDS011;56303;52.160;-0.428;2023-02-23T11:21:27;18.17;;;6.00;;
20743;SDS011;56303;52.160;-0.428;2023-02-23T11:26:48;17.87;;;5.97;;
20743;SDS011;56303;52.160;-0.428;2023-02-23T11:29:34;16.37;;;6.73;;
20743;SDS011;56303;52.160;-0.428;2023-02-23T11:32:15;17.83;;;5.00;;
20743;SDS011;56303;52.160;-0.428;2023-02-23T11:35:10;13.80;;;4.27;;
20743;SDS011;56303;52.160;-0.428;2023-02-23T11:37:47;16.53;;;3.93;;
20743;SDS011;56303;52.160;-0.428;2023-02-23T11:42:50;13.50;;;4.40;;
20743;SDS011;56303;52.160;-0.428;2023-02-23T11:45:37;14.53;;;4.60;;
20743;SDS011;56303;52.160;-0.428;2023-02-23T11:48:32;13.00;;;4.87;;
20743;SDS011;56303;52.160;-0.428;2023-02-23T11:51:09;15.40;;;4.77;;
20743;SDS011;56303;52.160;-0.428;2023-02-23T11:53:38;16.80;;;5.20;;
20743;SDS011;56303;52.160;-0.428;2023-02-23T11:56:09;19.57;;;5.20;;
20743;SDS011;56303;52.160;-0.428;2023-02-23T12:01:05;10.87;;;3.77;;
20743;SDS011;56303;52.160;-0.428;2023-02-23T12:03:38;15.07;;;4.63;;
20743;SDS011;56303;52.160;-0.428;2023-02-23T12:06:36;17.00;;;4.67;;
20743;SDS011;56303;52.160;-0.428;2023-02-23T12:12:03;14.87;;;3.87;;
20743;SDS011;56303;52.160;-0.428;2023-02-23T12:14:39;15.60;;;4.47;;
20743;SDS011;56303;52.160;-0.428;2023-02-23T12:17:18;10.97;;;3.53;;
20743;SDS011;56303;52.160;-0.428;2023-02-23T12:22:39;11.20;;;4.13;;
20743;SDS011;56303;52.160;-0.428;2023-02-23T12:25:32;12.57;;;3.60;;
20743;SDS011;56303;52.160;-0.428;2023-02-23T12:31:20;11.30;;;3.10;;
20743;SDS011;56303;52.160;-0.428;2023-02-23T12:33:50;18.13;;;4.53;;
20743;SDS011;56303;52.160;-0.428;2023-02-23T12:36:25;11.53;;;3.40;;
20743;SDS011;56303;52.160;-0.428;2023-02-23T12:38:57;17.60;;;4.73;;
20743;SDS011;56303;52.160;-0.428;2023-02-23T12:41:38;13.07;;;4.23;;
20743;SDS011;56303;52.160;-0.428;2023-02-23T12:47:12;15.07;;;4.10;;
20743;SDS011;56303;52.160;-0.428;2023-02-23T12:52:41;16.03;;;3.23;;
20743;SDS011;56303;52.160;-0.428;2023-02-23T12:55:13;17.10;;;4.23;;
20743;SDS011;56303;52.160;-0.428;2023-02-23T12:57:51;9.13;;;2.70;;
20743;SDS011;56303;52.160;-0.428;2023-02-23T13:06:18;12.87;;;3.70;;
20743;SDS011;56303;52.160;-0.428;2023-02-23T13:20:21;18.87;;;4.97;;
20743;SDS011;56303;52.160;-0.428;2023-02-23T13:22:56;14.20;;;3.70;;
20743;SDS011;56303;52.160;-0.428;2023-02-23T13:25:44;14.73;;;3.20;;
20743;SDS011;56303;52.160;-0.428;2023-02-23T13:31:21;17.33;;;3.77;;
20743;SDS011;56303;52.160;-0.428;2023-02-23T13:33:52;12.20;;;3.47;;
20743;SDS011;56303;52.160;-0.428;2023-02-23T13:36:21;20.30;;;4.37;;
20743;SDS011;56303;52.160;-0.428;2023-02-23T13:39:07;11.87;;;3.90;;
20743;SDS011;56303;52.160;-0.428;2023-02-23T13:44:20;10.83;;;3.17;;
20743;SDS011;56303;52.160;-0.428;2023-02-23T13:47:14;13.77;;;3.70;;
20743;SDS011;56303;52.160;-0.428;2023-02-23T13:49:56;11.83;;;4.17;;
20743;SDS011;56303;52.160;-0.428;2023-02-23T13:52:31;16.43;;;4.27;;
20743;SDS011;56303;52.160;-0.428;2023-02-23T13:57:51;13.57;;;3.47;;
20743;SDS011;56303;52.160;-0.428;2023-02-23T14:00:30;9.67;;;2.93;;
20743;SDS011;56303;52.160;-0.428;2023-02-23T14:03:01;9.47;;;3.33;;
20743;SDS011;56303;52.160;-0.428;2023-02-23T14:05:35;12.80;;;2.90;;
20743;SDS011;56303;52.160;-0.428;2023-02-23T14:08:18;8.43;;;2.53;;
20743;SDS011;56303;52.160;-0.428;2023-02-23T14:10:49;7.07;;;2.60;;
20743;SDS011;56303;52.160;-0.428;2023-02-23T14:15:47;9.93;;;2.50;;
20743;SDS011;56303;52.160;-0.428;2023-02-23T14:26:16;11.23;;;2.80;;
20743;SDS011;56303;52.160;-0.428;2023-02-23T14:31:54;9.00;;;3.13;;
20743;SDS011;56303;52.160;-0.428;2023-02-23T14:34:41;10.30;;;3.20;;
20743;SDS011;56303;52.160;-0.428;2023-02-23T14:40:20;11.97;;;2.90;;
20743;SDS011;56303;52.160;-0.428;2023-02-23T14:42:51;13.97;;;4.30;;
20743;SDS011;56303;52.160;-0.428;2023-02-23T14:47:54;12.73;;;5.13;;
20743;SDS011;56303;52.160;-0.428;2023-02-23T14:50:28;14.83;;;3.73;;
20743;SDS011;56303;52.160;-0.428;2023-02-23T14:53:00;13.73;;;4.77;;
20743;SDS011;56303;52.160;-0.428;2023-02-23T14:55:30;9.67;;;3.40;;
20743;SDS011;56303;52.160;-0.428;2023-02-23T14:58:00;10.70;;;3.70;;
20743;SDS011;56303;52.160;-0.428;2023-02-23T15:00:29;15.50;;;4.00;;
20743;SDS011;56303;52.160;-0.428;2023-02-23T15:03:05;8.73;;;3.70;;
20743;SDS011;56303;52.160;-0.428;2023-02-23T15:05:41;8.27;;;3.17;;
20743;SDS011;56303;52.160;-0.428;2023-02-23T15:08:16;7.73;;;2.93;;
20743;SDS011;56303;52.160;-0.428;2023-02-23T15:10:46;10.03;;;3.60;;
20743;SDS011;56303;52.160;-0.428;2023-02-23T15:13:29;10.93;;;3.73;;
20743;SDS011;56303;52.160;-0.428;2023-02-23T15:16:00;12.90;;;4.17;;
20743;SDS011;56303;52.160;-0.428;2023-02-23T15:18:39;9.93;;;3.67;;
20743;SDS011;56303;52.160;-0.428;2023-02-23T15:21:14;13.10;;;3.33;;
20743;SDS011;56303;52.160;-0.428;2023-02-23T15:23:44;12.53;;;4.00;;
20743;SDS011;56303;52.160;-0.428;2023-02-23T15:26:18;16.83;;;4.07;;
20743;SDS011;56303;52.160;-0.428;2023-02-23T15:28:52;13.00;;;4.27;;
20743;SDS011;56303;52.160;-0.428;2023-02-23T15:31:19;10.43;;;3.60;;
20743;SDS011;56303;52.160;-0.428;2023-02-23T15:33:47;17.77;;;5.07;;
20743;SDS011;56303;52.160;-0.428;2023-02-23T15:36:19;16.17;;;3.63;;
20743;SDS011;56303;52.160;-0.428;2023-02-23T15:39:01;12.03;;;4.23;;
20743;SDS011;56303;52.160;-0.428;2023-02-23T15:41:32;16.53;;;3.67;;
20743;SDS011;56303;52.160;-0.428;2023-02-23T15:44:04;19.40;;;4.80;;
20743;SDS011;56303;52.160;-0.428;2023-02-23T15:46:38;10.87;;;3.63;;
20743;SDS011;56303;52.160;-0.428;2023-02-23T15:49:08;12.73;;;3.87;;
20743;SDS011;56303;52.160;-0.428;2023-02-23T15:51:45;13.10;;;4.30;;
20743;SDS011;56303;52.160;-0.428;2023-02-23T15:54:36;14.13;;;3.57;;
20743;SDS011;56303;52.160;-0.428;2023-02-23T15:57:20;9.77;;;4.20;;
20743;SDS011;56303;52.160;-0.428;2023-02-23T15:59:59;14.80;;;4.23;;
20743;SDS011;56303;52.160;-0.428;2023-02-23T16:02:30;16.83;;;4.00;;
20743;SDS011;56303;52.160;-0.428;2023-02-23T16:05:04;14.67;;;6.93;;
20743;SDS011;56303;52.160;-0.428;2023-02-23T16:07:46;14.10;;;5.70;;
20743;SDS011;56303;52.160;-0.428;2023-02-23T16:10:20;15.60;;;4.93;;
20743;SDS011;56303;52.160;-0.428;2023-02-23T16:12:50;12.60;;;3.83;;
20743;SDS011;56303;52.160;-0.428;2023-02-23T16:17:52;14.10;;;4.40;;
20743;SDS011;56303;52.160;-0.428;2023-02-23T16:20:35;17.43;;;5.03;;
20743;SDS011;56303;52.160;-0.428;2023-02-23T16:23:55;14.23;;;3.90;;
20743;SDS011;56303;52.160;-0.428;2023-02-23T16:26:14;17.90;;;4.90;;
20743;SDS011;56303;52.160;-0.428;2023-02-23T16:28:45;15.97;;;4.67;;
20743;SDS011;56303;52.160;-0.428;2023-02-23T16:31:12;15.20;;;4.43;;
20743;SDS011;56303;52.160;-0.428;2023-02-23T16:33:52;15.43;;;4.37;;
20743;SDS011;56303;52.160;-0.428;2023-02-23T16:36:33;12.63;;;4.20;;
20743;SDS011;56303;52.160;-0.428;2023-02-23T16:39:08;21.10;;;4.63;;
20743;SDS011;56303;52.160;-0.428;2023-02-23T16:41:36;14.27;;;3.80;;
20743;SDS011;56303;52.160;-0.428;2023-02-23T16:44:05;11.37;;;3.87;;
20743;SDS011;56303;52.160;-0.428;2023-02-23T16:46:53;17.10;;;4.13;;
20743;SDS011;56303;52.160;-0.428;2023-02-23T16:49:21;13.17;;;3.73;;
20743;SDS011;56303;52.160;-0.428;2023-02-23T16:51:49;13.07;;;4.20;;
20743;SDS011;56303;52.160;-0.428;2023-02-23T16:54:16;13.27;;;4.23;;
20743;SDS011;56303;52.160;-0.428;2023-02-23T16:56:43;14.03;;;3.60;;
20743;SDS011;56303;52.160;-0.428;2023-02-23T16:59:13;14.03;;;4.33;;
20743;SDS011;56303;52.160;-0.428;2023-02-23T17:01:43;13.37;;;3.70;;
20743;SDS011;56303;52.160;-0.428;2023-02-23T17:04:15;15.60;;;4.37;;
20743;SDS011;56303;52.160;-0.428;2023-02-23T17:06:43;12.63;;;3.53;;
20743;SDS011;56303;52.160;-0.428;2023-02-23T17:09:17;13.60;;;3.20;;